createdAt,value
2022-10-31T00:00:29.646Z,62.41
2022-10-31T00:01:29.603Z,62.41
2022-10-31T00:02:29.684Z,62.41
2022-10-31T00:03:29.628Z,62.41
2022-10-31T00:04:29.603Z,62.51
2022-10-31T00:05:29.641Z,62.41
2022-10-31T00:06:29.642Z,62.51
2022-10-31T00:07:29.602Z,62.41
2022-10-31T00:08:29.674Z,62.41
2022-10-31T00:09:29.636Z,62.41
2022-10-31T00:10:29.660Z,62.41
2022-10-31T00:11:29.711Z,62.51
2022-10-31T00:12:29.731Z,62.51
2022-10-31T00:13:29.769Z,62.51
2022-10-31T00:14:29.831Z,62.51
2022-10-31T00:15:29.790Z,62.51
2022-10-31T00:16:29.833Z,62.54
2022-10-31T00:17:29.810Z,62.51
2022-10-31T00:18:29.837Z,62.51
2022-10-31T00:19:29.863Z,62.41
2022-10-31T00:20:29.888Z,62.51
2022-10-31T00:21:29.945Z,62.41
2022-10-31T00:22:29.975Z,62.44
2022-10-31T00:23:29.969Z,62.41
2022-10-31T00:24:29.957Z,62.51
2022-10-31T00:25:29.965Z,62.51
2022-10-31T00:26:30.012Z,62.41
2022-10-31T00:27:30.030Z,62.41
2022-10-31T00:28:30.041Z,62.41
2022-10-31T00:29:30.067Z,62.41
2022-10-31T00:30:30.099Z,62.41
2022-10-31T00:31:30.072Z,62.41
2022-10-31T00:32:30.102Z,62.41
2022-10-31T00:33:30.082Z,62.41
2022-10-31T00:34:30.099Z,62.41
2022-10-31T00:35:30.147Z,62.31
2022-10-31T00:36:30.179Z,62.31
2022-10-31T00:37:30.173Z,62.31
2022-10-31T00:38:30.161Z,62.31
2022-10-31T00:39:30.137Z,62.31
2022-10-31T00:40:30.199Z,62.31
2022-10-31T00:41:30.205Z,62.31
2022-10-31T00:42:30.252Z,62.41
2022-10-31T00:43:30.240Z,62.41
2022-10-31T00:44:30.301Z,62.41
2022-10-31T00:45:30.279Z,62.41
2022-10-31T00:46:30.325Z,62.41
2022-10-31T00:47:30.287Z,62.41
2022-10-31T00:48:30.325Z,62.41
2022-10-31T00:49:30.355Z,62.41
2022-10-31T00:50:30.371Z,62.41
2022-10-31T00:51:30.324Z,62.41
2022-10-31T00:52:30.353Z,62.41
2022-10-31T00:53:30.378Z,62.41
2022-10-31T00:54:30.422Z,62.41
2022-10-31T00:55:30.414Z,62.31
2022-10-31T00:56:30.398Z,62.41
2022-10-31T00:57:30.427Z,62.41
2022-10-31T00:58:30.455Z,62.44
2022-10-31T00:59:30.493Z,62.44
2022-10-31T01:00:30.469Z,62.54
2022-10-31T01:01:30.690Z,62.54
2022-10-31T01:02:30.720Z,62.44
2022-10-31T01:03:30.533Z,62.41
2022-10-31T01:04:30.582Z,62.31
2022-10-31T01:05:30.566Z,62.31
2022-10-31T01:06:30.606Z,62.31
2022-10-31T01:07:30.570Z,62.41
2022-10-31T01:08:30.641Z,62.31
2022-10-31T01:09:30.612Z,62.31
2022-10-31T01:10:30.588Z,62.21
2022-10-31T01:11:30.622Z,62.31
2022-10-31T01:12:30.670Z,62.41
2022-10-31T01:13:30.657Z,62.41
2022-10-31T01:14:30.692Z,62.41
2022-10-31T01:15:30.671Z,62.41
2022-10-31T01:16:30.706Z,62.44
2022-10-31T01:17:30.723Z,62.44
2022-10-31T01:18:30.771Z,62.41
2022-10-31T01:19:30.813Z,62.41
2022-10-31T01:20:30.751Z,62.41
2022-10-31T01:21:30.770Z,62.41
2022-10-31T01:22:30.775Z,62.31
2022-10-31T01:23:30.804Z,62.31
2022-10-31T01:24:30.833Z,62.31
2022-10-31T01:25:30.807Z,62.31
2022-10-31T01:26:30.834Z,62.31
2022-10-31T01:27:30.806Z,62.31
2022-10-31T01:28:30.865Z,62.31
2022-10-31T01:29:30.861Z,62.41
2022-10-31T01:30:30.831Z,62.31
2022-10-31T01:31:30.847Z,62.31
2022-10-31T01:32:30.814Z,62.34
2022-10-31T01:33:30.827Z,62.31
2022-10-31T01:34:30.902Z,62.31
2022-10-31T01:35:30.874Z,62.31
2022-10-31T01:36:30.895Z,62.34
2022-10-31T01:37:30.928Z,62.34
2022-10-31T01:38:30.952Z,62.34
2022-10-31T01:39:30.945Z,62.31
2022-10-31T01:40:30.966Z,62.31
2022-10-31T01:41:30.947Z,62.31
2022-10-31T01:42:30.965Z,62.31
2022-10-31T01:43:30.989Z,62.31
2022-10-31T01:44:31.012Z,62.34
2022-10-31T01:45:31.004Z,62.44
2022-10-31T01:46:31.016Z,62.44
2022-10-31T01:47:31.042Z,62.34
2022-10-31T01:48:31.069Z,62.31
2022-10-31T01:49:32.328Z,62.31
2022-10-31T01:50:31.148Z,62.34
2022-10-31T01:51:31.117Z,62.31
2022-10-31T01:52:31.219Z,62.34
2022-10-31T01:53:31.157Z,62.31
2022-10-31T01:54:31.139Z,62.31
2022-10-31T01:55:31.167Z,62.34
2022-10-31T01:56:31.176Z,62.34
2022-10-31T01:57:31.186Z,62.31
2022-10-31T01:58:31.208Z,62.31
2022-10-31T01:59:31.239Z,62.34
2022-10-31T02:00:31.259Z,62.31
2022-10-31T02:01:31.414Z,62.31
2022-10-31T02:02:31.459Z,62.31
2022-10-31T02:03:31.271Z,62.31
2022-10-31T02:04:31.321Z,62.31
2022-10-31T02:05:31.324Z,62.31
2022-10-31T02:06:31.314Z,62.31
2022-10-31T02:07:31.278Z,62.34
2022-10-31T02:08:31.301Z,62.34
2022-10-31T02:09:31.340Z,62.34
2022-10-31T02:10:31.322Z,62.34
2022-10-31T02:11:31.329Z,62.34
2022-10-31T02:12:31.362Z,62.34
2022-10-31T02:13:31.402Z,62.34
2022-10-31T02:14:31.428Z,62.34
2022-10-31T02:15:31.403Z,62.34
2022-10-31T02:16:31.390Z,62.31
2022-10-31T02:17:31.423Z,62.34
2022-10-31T02:18:31.444Z,62.34
2022-10-31T02:19:31.478Z,62.31
2022-10-31T02:20:31.499Z,62.34
2022-10-31T02:21:31.513Z,62.34
2022-10-31T02:22:31.589Z,62.34
2022-10-31T02:23:31.561Z,62.34
2022-10-31T02:24:31.593Z,62.31
2022-10-31T02:25:31.608Z,62.31
2022-10-31T02:26:31.639Z,62.34
2022-10-31T02:27:31.665Z,62.44
2022-10-31T02:28:31.714Z,62.34
2022-10-31T02:29:31.711Z,62.34
2022-10-31T02:30:31.693Z,62.34
2022-10-31T02:31:31.726Z,62.34
2022-10-31T02:32:31.741Z,62.31
2022-10-31T02:33:31.795Z,62.34
2022-10-31T02:34:31.806Z,62.34
2022-10-31T02:35:31.797Z,62.21
2022-10-31T02:36:31.821Z,62.21
2022-10-31T02:37:31.850Z,62.34
2022-10-31T02:38:31.904Z,62.34
2022-10-31T02:39:31.868Z,62.34
2022-10-31T02:40:31.913Z,62.34
2022-10-31T02:41:31.911Z,62.34
2022-10-31T02:42:31.920Z,62.44
2022-10-31T02:43:31.949Z,62.34
2022-10-31T02:44:32.017Z,62.34
2022-10-31T02:45:32.000Z,62.44
2022-10-31T02:46:31.982Z,62.34
2022-10-31T02:47:31.999Z,62.34
2022-10-31T02:48:32.022Z,62.31
2022-10-31T02:49:32.072Z,62.34
2022-10-31T02:50:32.083Z,62.34
2022-10-31T02:51:32.050Z,62.34
2022-10-31T02:52:32.075Z,62.34
2022-10-31T02:53:32.099Z,62.44
2022-10-31T02:54:32.187Z,62.44
2022-10-31T02:55:32.144Z,62.44
2022-10-31T02:56:32.177Z,62.44
2022-10-31T02:57:32.214Z,62.44
2022-10-31T02:58:32.191Z,62.34
2022-10-31T02:59:32.221Z,62.44
2022-10-31T03:00:32.259Z,62.44
2022-10-31T03:01:32.394Z,62.44
2022-10-31T03:02:32.358Z,62.44
2022-10-31T03:03:32.257Z,62.44
2022-10-31T03:04:32.306Z,62.44
2022-10-31T03:05:32.288Z,62.44
2022-10-31T03:06:32.262Z,62.44
2022-10-31T03:07:32.302Z,62.44
2022-10-31T03:08:32.331Z,62.34
2022-10-31T03:09:32.341Z,62.34
2022-10-31T03:10:32.393Z,62.34
2022-10-31T03:11:32.382Z,62.34
2022-10-31T03:12:32.389Z,62.44
2022-10-31T03:13:32.413Z,62.34
2022-10-31T03:14:32.451Z,62.44
2022-10-31T03:15:32.435Z,62.44
2022-10-31T03:16:32.465Z,62.54
2022-10-31T03:17:32.485Z,62.54
2022-10-31T03:18:32.517Z,62.54
2022-10-31T03:19:32.544Z,62.54
2022-10-31T03:20:32.557Z,62.54
2022-10-31T03:21:32.611Z,62.54
2022-10-31T03:22:32.594Z,62.54
2022-10-31T03:23:32.615Z,62.44
2022-10-31T03:24:32.660Z,62.44
2022-10-31T03:25:32.655Z,62.44
2022-10-31T03:26:32.650Z,62.44
2022-10-31T03:27:32.641Z,62.44
2022-10-31T03:28:32.653Z,62.44
2022-10-31T03:29:32.685Z,62.34
2022-10-31T03:30:32.688Z,62.44
2022-10-31T03:31:32.681Z,62.44
2022-10-31T03:32:32.690Z,62.44
2022-10-31T03:33:32.716Z,62.34
2022-10-31T03:34:32.753Z,62.44
2022-10-31T03:35:32.798Z,62.34
2022-10-31T03:36:32.780Z,62.34
2022-10-31T03:37:32.789Z,62.34
2022-10-31T03:38:32.782Z,62.34
2022-10-31T03:39:32.822Z,62.44
2022-10-31T03:40:32.818Z,62.44
2022-10-31T03:41:32.798Z,62.44
2022-10-31T03:42:32.847Z,62.54
2022-10-31T03:43:32.818Z,62.54
2022-10-31T03:44:32.844Z,62.44
2022-10-31T03:45:32.826Z,62.44
2022-10-31T03:46:32.870Z,62.44
2022-10-31T03:47:32.891Z,62.44
2022-10-31T03:48:32.918Z,62.44
2022-10-31T03:49:32.961Z,62.34
2022-10-31T03:50:32.950Z,62.44
2022-10-31T03:51:32.966Z,62.44
2022-10-31T03:52:32.994Z,62.44
2022-10-31T03:53:33.032Z,62.34
2022-10-31T03:54:33.055Z,62.34
2022-10-31T03:55:33.089Z,62.44
2022-10-31T03:56:33.084Z,62.34
2022-10-31T03:57:33.100Z,62.44
2022-10-31T03:58:33.158Z,62.44
2022-10-31T03:59:33.119Z,62.34
2022-10-31T04:00:33.165Z,62.34
2022-10-31T04:01:33.269Z,62.34
2022-10-31T04:02:33.403Z,62.34
2022-10-31T04:03:33.169Z,62.34
2022-10-31T04:04:33.183Z,62.34
2022-10-31T04:05:33.235Z,62.34
2022-10-31T04:06:33.211Z,62.34
2022-10-31T04:07:33.247Z,62.44
2022-10-31T04:08:33.278Z,62.44
2022-10-31T04:09:33.280Z,62.44
2022-10-31T04:10:33.895Z,62.54
2022-10-31T04:11:33.298Z,62.54
2022-10-31T04:12:33.312Z,62.64
2022-10-31T04:13:33.365Z,62.64
2022-10-31T04:14:33.414Z,62.54
2022-10-31T04:15:33.381Z,62.54
2022-10-31T04:16:33.408Z,62.54
2022-10-31T04:17:33.420Z,62.54
2022-10-31T04:18:33.437Z,62.54
2022-10-31T04:19:33.454Z,62.44
2022-10-31T04:20:33.508Z,62.54
2022-10-31T04:21:33.499Z,62.54
2022-10-31T04:22:33.467Z,62.54
2022-10-31T04:23:33.725Z,62.44
2022-10-31T04:24:33.526Z,62.44
2022-10-31T04:25:33.550Z,62.54
2022-10-31T04:26:33.555Z,62.54
2022-10-31T04:27:33.572Z,62.54
2022-10-31T04:28:33.593Z,62.54
2022-10-31T04:29:33.615Z,62.54
2022-10-31T04:30:33.666Z,62.54
2022-10-31T04:31:33.676Z,62.44
2022-10-31T04:32:33.663Z,62.44
2022-10-31T04:33:33.710Z,62.44
2022-10-31T04:34:33.720Z,62.44
2022-10-31T04:35:33.739Z,62.44
2022-10-31T04:36:33.779Z,62.44
2022-10-31T04:37:33.770Z,62.44
2022-10-31T04:38:33.788Z,62.44
2022-10-31T04:39:33.813Z,62.44
2022-10-31T04:40:33.852Z,62.44
2022-10-31T04:41:33.840Z,62.44
2022-10-31T04:42:33.815Z,62.44
2022-10-31T04:43:33.847Z,62.44
2022-10-31T04:44:34.063Z,62.44
2022-10-31T04:45:33.888Z,62.44
2022-10-31T04:46:33.971Z,62.44
2022-10-31T04:47:33.935Z,62.44
2022-10-31T04:48:33.959Z,62.44
2022-10-31T04:49:34.011Z,62.44
2022-10-31T04:50:33.980Z,62.44
2022-10-31T04:51:34.060Z,62.44
2022-10-31T04:52:34.019Z,62.44
2022-10-31T04:53:34.053Z,62.54
2022-10-31T04:54:34.112Z,62.54
2022-10-31T04:55:34.107Z,62.44
2022-10-31T04:56:34.095Z,62.44
2022-10-31T04:57:34.128Z,62.34
2022-10-31T04:58:34.162Z,62.44
2022-10-31T04:59:34.168Z,62.54
2022-10-31T05:00:34.216Z,62.54
2022-10-31T05:01:34.393Z,62.44
2022-10-31T05:02:34.230Z,62.54
2022-10-31T05:03:34.246Z,62.54
2022-10-31T05:04:34.273Z,62.54
2022-10-31T05:05:34.311Z,62.54
2022-10-31T05:06:34.289Z,62.54
2022-10-31T05:07:34.301Z,62.54
2022-10-31T05:08:34.343Z,62.54
2022-10-31T05:09:34.404Z,62.54
2022-10-31T05:10:34.370Z,62.54
2022-10-31T05:11:34.357Z,62.54
2022-10-31T05:12:34.344Z,62.54
2022-10-31T05:13:34.387Z,62.44
2022-10-31T05:14:34.366Z,62.54
2022-10-31T05:15:34.419Z,62.54
2022-10-31T05:16:34.391Z,62.54
2022-10-31T05:17:34.413Z,62.54
2022-10-31T05:18:34.521Z,62.54
2022-10-31T05:19:34.485Z,62.54
2022-10-31T05:20:34.453Z,62.54
2022-10-31T05:21:34.489Z,62.54
2022-10-31T05:22:34.495Z,62.44
2022-10-31T05:23:34.540Z,62.44
2022-10-31T05:24:34.560Z,62.44
2022-10-31T05:25:34.601Z,62.44
2022-10-31T05:26:34.613Z,62.54
2022-10-31T05:27:34.651Z,62.54
2022-10-31T05:28:34.682Z,62.44
2022-10-31T05:29:34.701Z,62.44
2022-10-31T05:30:34.695Z,62.44
2022-10-31T05:31:34.670Z,62.44
2022-10-31T05:32:34.705Z,62.44
2022-10-31T05:33:34.729Z,62.44
2022-10-31T05:34:34.772Z,62.44
2022-10-31T05:35:34.785Z,62.44
2022-10-31T05:36:34.783Z,62.44
2022-10-31T05:37:34.807Z,62.44
2022-10-31T05:38:34.861Z,62.44
2022-10-31T05:39:34.876Z,62.44
2022-10-31T05:40:34.898Z,62.44
2022-10-31T05:41:34.884Z,62.44
2022-10-31T05:42:34.909Z,62.44
2022-10-31T05:43:34.935Z,62.44
2022-10-31T05:44:34.969Z,62.44
2022-10-31T05:45:34.983Z,62.44
2022-10-31T05:47:34.963Z,62.44
2022-10-31T05:48:34.997Z,62.44
2022-10-31T05:49:35.030Z,62.44
2022-10-31T05:50:35.075Z,62.44
2022-10-31T05:51:35.050Z,62.54
2022-10-31T05:52:35.059Z,62.54
2022-10-31T05:53:35.106Z,62.54
2022-10-31T05:54:35.143Z,62.44
2022-10-31T05:55:35.169Z,62.54
2022-10-31T05:56:35.157Z,62.44
2022-10-31T05:57:35.167Z,62.44
2022-10-31T05:58:35.205Z,62.44
2022-10-31T05:59:35.235Z,62.34
2022-10-31T06:02:01.174Z,62.44
2022-10-31T06:03:01.296Z,62.44
2022-10-31T06:04:01.219Z,62.44
2022-10-31T06:05:01.274Z,62.44
2022-10-31T06:06:01.285Z,62.44
2022-10-31T06:07:01.294Z,62.44
2022-10-31T06:08:01.767Z,62.44
2022-10-31T06:09:01.321Z,62.44
2022-10-31T06:10:01.321Z,62.44
2022-10-31T06:11:01.347Z,62.44
2022-10-31T06:12:01.376Z,62.54
2022-10-31T06:13:01.427Z,62.44
2022-10-31T06:14:01.391Z,62.44
2022-10-31T06:15:01.415Z,62.44
2022-10-31T06:16:01.440Z,62.44
2022-10-31T06:17:01.469Z,62.44
2022-10-31T06:18:01.954Z,62.44
2022-10-31T06:19:01.480Z,62.44
2022-10-31T06:20:01.500Z,62.44
2022-10-31T06:21:01.541Z,62.44
2022-10-31T06:22:01.574Z,62.44
2022-10-31T06:23:02.144Z,62.44
2022-10-31T06:24:01.563Z,62.44
2022-10-31T06:25:01.582Z,62.34
2022-10-31T06:26:01.609Z,62.44
2022-10-31T06:27:01.609Z,62.34
2022-10-31T06:28:01.628Z,62.34
2022-10-31T06:29:04.162Z,62.34
2022-10-31T06:30:01.645Z,62.34
2022-10-31T06:31:01.672Z,62.34
2022-10-31T06:32:01.698Z,62.44
2022-10-31T06:33:02.126Z,62.44
2022-10-31T06:34:01.704Z,62.44
2022-10-31T06:35:01.729Z,62.34
2022-10-31T06:36:01.769Z,62.34
2022-10-31T06:37:01.779Z,62.34
2022-10-31T06:38:02.103Z,62.34
2022-10-31T06:39:01.809Z,62.34
2022-10-31T06:40:01.823Z,62.34
2022-10-31T06:41:01.837Z,62.34
2022-10-31T06:42:01.844Z,62.34
2022-10-31T06:43:01.887Z,62.34
2022-10-31T06:44:05.035Z,62.34
2022-10-31T06:45:01.910Z,62.34
2022-10-31T06:46:01.875Z,62.34
2022-10-31T06:47:01.867Z,62.34
2022-10-31T06:48:16.666Z,62.34
2022-10-31T06:49:01.906Z,62.34
2022-10-31T06:50:01.935Z,62.34
2022-10-31T06:51:01.959Z,62.34
2022-10-31T06:52:01.985Z,62.24
2022-10-31T06:53:01.993Z,62.24
2022-10-31T06:54:02.014Z,62.34
2022-10-31T06:55:01.965Z,62.24
2022-10-31T06:56:01.981Z,62.24
2022-10-31T06:57:01.986Z,62.24
2022-10-31T06:58:03.201Z,62.34
2022-10-31T06:59:02.003Z,62.24
2022-10-31T07:00:02.045Z,62.24
2022-10-31T07:01:02.132Z,62.34
2022-10-31T07:02:02.220Z,62.34
2022-10-31T07:03:02.063Z,62.24
2022-10-31T07:04:02.068Z,62.34
2022-10-31T07:05:02.070Z,62.34
2022-10-31T07:06:02.075Z,62.24
2022-10-31T07:07:02.090Z,62.24
2022-10-31T07:08:02.543Z,62.24
2022-10-31T07:09:02.147Z,62.34
2022-10-31T07:10:02.220Z,62.34
2022-10-31T07:11:02.355Z,62.34
2022-10-31T07:12:02.196Z,62.34
2022-10-31T07:13:02.651Z,62.24
2022-10-31T07:14:02.242Z,62.24
2022-10-31T07:15:02.266Z,62.24
2022-10-31T07:16:02.299Z,62.24
2022-10-31T07:17:02.297Z,62.24
2022-10-31T07:18:02.309Z,62.24
2022-10-31T07:19:02.307Z,62.24
2022-10-31T07:20:02.326Z,62.24
2022-10-31T07:21:02.369Z,62.24
2022-10-31T07:22:02.335Z,62.24
2022-10-31T07:23:04.019Z,62.14
2022-10-31T07:24:02.363Z,62.14
2022-10-31T07:25:02.392Z,62.14
2022-10-31T07:26:02.427Z,62.14
2022-10-31T07:27:02.446Z,62.14
2022-10-31T07:28:02.902Z,62.14
2022-10-31T07:29:02.496Z,62.14
2022-10-31T07:30:02.523Z,62.14
2022-10-31T07:31:02.783Z,62.14
2022-10-31T07:32:02.558Z,62.14
2022-10-31T07:33:02.585Z,62.14
2022-10-31T07:34:02.598Z,62.14
2022-10-31T07:35:02.576Z,62.04
2022-10-31T07:36:02.604Z,62.04
2022-10-31T07:37:02.628Z,61.94
2022-10-31T07:38:02.941Z,61.94
2022-10-31T07:39:02.640Z,62.04
2022-10-31T07:40:02.648Z,62.04
2022-10-31T07:41:02.666Z,62.04
2022-10-31T07:42:02.731Z,62.04
2022-10-31T07:43:02.730Z,62.04
2022-10-31T07:44:02.707Z,61.94
2022-10-31T07:45:02.713Z,61.94
2022-10-31T07:46:02.729Z,61.94
2022-10-31T07:47:02.756Z,61.94
2022-10-31T07:48:03.243Z,61.84
2022-10-31T07:49:02.784Z,61.94
2022-10-31T07:50:02.778Z,61.84
2022-10-31T07:51:02.789Z,61.94
2022-10-31T07:52:02.823Z,61.94
2022-10-31T07:53:02.830Z,61.84
2022-10-31T07:54:02.843Z,61.81
2022-10-31T07:55:02.859Z,61.81
2022-10-31T07:56:02.872Z,61.71
2022-10-31T07:57:02.915Z,61.81
2022-10-31T07:58:03.333Z,61.71
2022-10-31T07:59:02.946Z,61.71
2022-10-31T08:00:02.954Z,61.71
2022-10-31T08:01:03.120Z,61.71
2022-10-31T08:02:02.979Z,61.71
2022-10-31T08:03:03.365Z,61.71
2022-10-31T08:04:03.041Z,61.71
2022-10-31T08:05:03.013Z,61.81
2022-10-31T08:06:03.039Z,61.81
2022-10-31T08:07:03.044Z,61.81
2022-10-31T08:08:03.347Z,61.71
2022-10-31T08:09:03.070Z,61.71
2022-10-31T08:10:03.090Z,61.71
2022-10-31T08:11:03.124Z,61.71
2022-10-31T08:12:03.159Z,61.71
2022-10-31T08:13:03.187Z,61.61
2022-10-31T08:14:03.254Z,61.71
2022-10-31T08:15:03.181Z,61.71
2022-10-31T08:16:03.205Z,61.61
2022-10-31T08:17:03.229Z,61.61
2022-10-31T08:18:03.500Z,61.61
2022-10-31T08:19:03.235Z,61.61
2022-10-31T08:20:03.276Z,61.61
2022-10-31T08:21:03.286Z,61.61
2022-10-31T08:22:03.290Z,61.61
2022-10-31T08:23:03.322Z,61.61
2022-10-31T08:24:03.306Z,61.61
2022-10-31T08:25:03.333Z,61.61
2022-10-31T08:26:03.357Z,61.61
2022-10-31T08:27:03.392Z,61.61
2022-10-31T08:28:03.723Z,61.61
2022-10-31T08:29:03.378Z,61.61
2022-10-31T08:30:03.423Z,61.61
2022-10-31T08:31:03.383Z,61.61
2022-10-31T08:32:03.414Z,61.51
2022-10-31T08:33:03.422Z,61.51
2022-10-31T08:34:03.417Z,61.61
2022-10-31T08:35:03.432Z,61.61
2022-10-31T08:36:03.432Z,61.61
2022-10-31T08:37:03.564Z,61.61
2022-10-31T08:38:04.010Z,61.61
2022-10-31T08:39:03.503Z,61.61
2022-10-31T08:40:03.549Z,61.61
2022-10-31T08:41:03.527Z,61.71
2022-10-31T08:42:03.554Z,61.71
2022-10-31T08:43:03.564Z,61.71
2022-10-31T08:44:03.556Z,61.71
2022-10-31T08:45:03.553Z,61.71
2022-10-31T08:46:03.554Z,61.71
2022-10-31T08:47:03.521Z,61.61
2022-10-31T08:48:04.178Z,61.61
2022-10-31T08:49:03.570Z,61.51
2022-10-31T08:50:03.584Z,61.51
2022-10-31T08:51:03.598Z,61.61
2022-10-31T08:52:03.611Z,61.61
2022-10-31T08:53:05.698Z,61.61
2022-10-31T08:54:03.632Z,61.51
2022-10-31T08:55:03.656Z,61.51
2022-10-31T08:56:03.639Z,61.51
2022-10-31T08:57:03.678Z,61.51
2022-10-31T08:58:04.115Z,61.51
2022-10-31T08:59:03.678Z,61.51
2022-10-31T09:00:03.639Z,61.51
2022-10-31T09:01:03.779Z,61.51
2022-10-31T09:02:03.825Z,61.51
2022-10-31T09:03:03.691Z,61.61
2022-10-31T09:04:03.703Z,61.61
2022-10-31T09:05:03.736Z,61.61
2022-10-31T09:06:03.906Z,61.61
2022-10-31T09:07:32.746Z,61.61
2022-10-31T09:08:04.130Z,61.61
2022-10-31T09:09:03.840Z,61.61
2022-10-31T09:10:03.817Z,61.51
2022-10-31T09:11:03.828Z,61.61
2022-10-31T09:12:03.841Z,61.61
2022-10-31T09:13:03.902Z,61.51
2022-10-31T09:14:03.864Z,61.61
2022-10-31T09:15:03.890Z,61.61
2022-10-31T09:16:03.912Z,61.61
2022-10-31T09:17:03.946Z,61.61
2022-10-31T09:18:04.568Z,61.71
2022-10-31T09:19:07.435Z,61.71
2022-10-31T09:20:04.022Z,61.71
2022-10-31T09:21:04.068Z,61.71
2022-10-31T09:22:04.089Z,61.71
2022-10-31T09:23:04.109Z,61.71
2022-10-31T09:24:04.168Z,61.61
2022-10-31T09:25:04.129Z,61.61
2022-10-31T09:26:04.133Z,61.61
2022-10-31T09:27:04.162Z,61.51
2022-10-31T09:28:04.510Z,61.61
2022-10-31T09:29:04.172Z,61.51
2022-10-31T09:30:04.190Z,61.61
2022-10-31T09:31:04.208Z,61.61
2022-10-31T09:32:04.242Z,61.51
2022-10-31T09:33:04.274Z,61.51
2022-10-31T09:34:04.277Z,61.51
2022-10-31T09:35:04.291Z,61.51
2022-10-31T09:36:04.251Z,61.41
2022-10-31T09:37:04.295Z,61.51
2022-10-31T09:38:04.615Z,61.41
2022-10-31T09:39:04.302Z,61.41
2022-10-31T09:40:04.338Z,61.51
2022-10-31T09:41:04.353Z,61.61
2022-10-31T09:42:04.360Z,61.51
2022-10-31T09:43:04.406Z,61.51
2022-10-31T09:44:04.380Z,61.51
2022-10-31T09:45:04.417Z,61.51
2022-10-31T09:46:04.432Z,61.41
2022-10-31T09:47:04.464Z,61.51
2022-10-31T09:48:04.564Z,61.51
2022-10-31T09:49:04.587Z,61.51
2022-10-31T09:50:04.527Z,61.51
2022-10-31T09:51:04.522Z,61.41
2022-10-31T09:52:04.587Z,61.51
2022-10-31T09:53:04.767Z,61.41
2022-10-31T09:54:04.542Z,61.41
2022-10-31T09:55:04.543Z,61.41
2022-10-31T09:56:04.567Z,61.31
2022-10-31T09:57:04.583Z,61.31
2022-10-31T09:58:04.612Z,61.31
2022-10-31T09:59:04.598Z,61.41
2022-10-31T10:00:04.636Z,61.31
2022-10-31T10:01:04.790Z,61.31
2022-10-31T10:02:04.739Z,61.31
2022-10-31T10:03:04.684Z,61.21
2022-10-31T10:04:04.674Z,61.28
2022-10-31T10:05:04.684Z,61.28
2022-10-31T10:06:04.663Z,61.28
2022-10-31T10:07:04.680Z,61.18
2022-10-31T10:08:04.660Z,61.18
2022-10-31T10:09:04.666Z,61.18
2022-10-31T10:10:04.758Z,61.18
2022-10-31T10:11:04.728Z,61.18
2022-10-31T10:12:04.760Z,61.18
2022-10-31T10:13:08.200Z,61.18
2022-10-31T10:14:04.794Z,61.08
2022-10-31T10:15:04.808Z,61.08
2022-10-31T10:16:04.808Z,61.08
2022-10-31T10:17:04.825Z,61.08
2022-10-31T10:18:04.896Z,61.08
2022-10-31T10:19:04.860Z,61.08
2022-10-31T10:20:04.900Z,61.08
2022-10-31T10:21:04.922Z,61.08
2022-10-31T10:22:04.963Z,61.08
2022-10-31T10:23:04.975Z,60.98
2022-10-31T10:24:05.024Z,60.98
2022-10-31T10:25:05.039Z,61.08
2022-10-31T10:26:10.199Z,60.98
2022-10-31T10:27:05.066Z,60.98
2022-10-31T10:28:05.081Z,60.98
2022-10-31T10:29:05.105Z,60.98
2022-10-31T10:30:05.143Z,60.98
2022-10-31T10:31:05.160Z,60.88
2022-10-31T10:32:05.180Z,60.98
2022-10-31T10:33:05.212Z,60.98
2022-10-31T10:34:05.221Z,60.88
2022-10-31T10:35:05.220Z,60.98
2022-10-31T10:36:05.241Z,60.88
2022-10-31T10:37:05.269Z,60.88
2022-10-31T10:38:05.368Z,60.78
2022-10-31T10:39:05.334Z,60.78
2022-10-31T10:40:05.345Z,60.78
2022-10-31T10:41:05.374Z,60.78
2022-10-31T10:42:05.402Z,60.78
2022-10-31T10:43:05.422Z,60.68
2022-10-31T10:44:05.448Z,60.68
2022-10-31T10:45:05.473Z,60.68
2022-10-31T10:46:09.209Z,60.68
2022-10-31T10:47:05.519Z,60.68
2022-10-31T10:48:05.499Z,60.68
2022-10-31T10:49:05.523Z,60.68
2022-10-31T10:50:05.544Z,60.68
2022-10-31T10:51:05.560Z,60.68
2022-10-31T10:53:05.621Z,60.68
2022-10-31T10:54:10.414Z,60.68
2022-10-31T10:55:05.615Z,60.68
2022-10-31T10:56:05.636Z,60.68
2022-10-31T10:57:05.693Z,60.68
2022-10-31T10:58:05.719Z,60.65
2022-10-31T10:59:05.670Z,60.68
2022-10-31T11:00:05.681Z,60.68
2022-10-31T11:01:05.877Z,60.68
2022-10-31T11:02:05.708Z,60.68
2022-10-31T11:03:06.086Z,60.68
2022-10-31T11:04:05.715Z,60.68
2022-10-31T11:05:05.752Z,60.55
2022-10-31T11:06:05.768Z,60.55
2022-10-31T11:07:05.796Z,60.55
2022-10-31T11:08:05.825Z,60.55
2022-10-31T11:09:05.891Z,60.55
2022-10-31T11:10:05.902Z,60.55
2022-10-31T11:11:05.862Z,60.55
2022-10-31T11:12:05.900Z,60.55
2022-10-31T11:13:05.926Z,60.55
2022-10-31T11:14:05.971Z,60.55
2022-10-31T11:15:05.999Z,60.45
2022-10-31T11:16:05.964Z,60.45
2022-10-31T11:17:05.986Z,60.45
2022-10-31T11:18:06.006Z,60.45
2022-10-31T11:19:06.040Z,60.45
2022-10-31T11:20:06.030Z,60.45
2022-10-31T11:21:06.011Z,60.35
2022-10-31T11:22:06.037Z,60.35
2022-10-31T11:23:06.582Z,60.35
2022-10-31T11:24:06.007Z,60.35
2022-10-31T11:25:06.027Z,60.35
2022-10-31T11:26:06.071Z,60.35
2022-10-31T11:27:06.042Z,60.35
2022-10-31T11:28:06.070Z,60.35
2022-10-31T11:29:06.071Z,60.35
2022-10-31T11:30:06.074Z,60.35
2022-10-31T11:31:06.100Z,60.35
2022-10-31T11:32:06.140Z,60.35
2022-10-31T11:33:06.173Z,60.35
2022-10-31T11:34:06.156Z,60.35
2022-10-31T11:35:06.177Z,60.35
2022-10-31T11:36:06.249Z,60.35
2022-10-31T11:37:06.216Z,60.35
2022-10-31T11:38:06.254Z,60.35
2022-10-31T11:39:06.239Z,60.25
2022-10-31T11:40:06.321Z,60.25
2022-10-31T11:41:06.289Z,60.25
2022-10-31T11:42:09.062Z,60.25
2022-10-31T11:43:06.357Z,60.25
2022-10-31T11:44:06.345Z,60.25
2022-10-31T11:45:06.318Z,60.25
2022-10-31T11:46:06.337Z,60.15
2022-10-31T11:47:06.414Z,60.15
2022-10-31T11:48:06.889Z,60.15
2022-10-31T11:49:06.412Z,60.15
2022-10-31T11:50:06.402Z,60.15
2022-10-31T11:51:06.396Z,60.15
2022-10-31T11:52:06.376Z,60.15
2022-10-31T11:53:06.427Z,60.15
2022-10-31T11:54:06.405Z,60.15
2022-10-31T11:55:06.438Z,60.15
2022-10-31T11:56:06.418Z,60.15
2022-10-31T11:57:06.444Z,60.15
2022-10-31T11:58:06.492Z,60.15
2022-10-31T11:59:06.463Z,60.25
2022-10-31T12:00:06.498Z,60.25
2022-10-31T12:01:06.521Z,60.25
2022-10-31T12:02:06.660Z,60.25
2022-10-31T12:03:06.565Z,60.25
2022-10-31T12:04:06.489Z,60.15
2022-10-31T12:05:06.523Z,60.15
2022-10-31T12:06:06.502Z,60.15
2022-10-31T12:07:06.529Z,60.15
2022-10-31T12:08:06.579Z,60.15
2022-10-31T12:09:06.557Z,60.02
2022-10-31T12:10:06.578Z,60.15
2022-10-31T12:11:06.611Z,60.05
2022-10-31T12:12:06.635Z,60.02
2022-10-31T12:13:06.640Z,60.12
2022-10-31T12:14:06.693Z,60.12
2022-10-31T12:15:06.661Z,60.12
2022-10-31T12:16:06.681Z,60.22
2022-10-31T12:17:06.711Z,60.15
2022-10-31T12:18:06.719Z,60.15
2022-10-31T12:19:06.742Z,60.15
2022-10-31T12:20:06.750Z,60.12
2022-10-31T12:21:06.746Z,60.12
2022-10-31T12:22:06.778Z,60.12
2022-10-31T12:23:06.762Z,60.15
2022-10-31T12:24:06.766Z,60.12
2022-10-31T12:25:06.745Z,60.02
2022-10-31T12:26:06.760Z,60.02
2022-10-31T12:27:06.790Z,60.02
2022-10-31T12:28:06.791Z,60.02
2022-10-31T12:29:06.814Z,60.02
2022-10-31T12:30:06.875Z,60.12
2022-10-31T12:31:06.831Z,60.02
2022-10-31T12:32:06.873Z,60.12
2022-10-31T12:33:06.851Z,60.12
2022-10-31T12:34:06.873Z,60.02
2022-10-31T12:35:06.904Z,60.02
2022-10-31T12:36:09.636Z,60.02
2022-10-31T12:37:06.935Z,60.02
2022-10-31T12:38:06.951Z,60.02
2022-10-31T12:39:06.960Z,60.02
2022-10-31T12:40:06.988Z,59.92
2022-10-31T12:41:06.962Z,60.02
2022-10-31T12:42:06.974Z,60.02
2022-10-31T12:43:07.003Z,59.92
2022-10-31T12:44:06.970Z,59.92
2022-10-31T12:45:06.995Z,59.82
2022-10-31T12:46:07.031Z,59.92
2022-10-31T12:47:07.027Z,59.92
2022-10-31T12:48:07.093Z,59.92
2022-10-31T12:49:07.052Z,59.92
2022-10-31T12:50:07.067Z,59.92
2022-10-31T12:51:07.100Z,59.92
2022-10-31T12:52:07.091Z,59.92
2022-10-31T12:53:07.212Z,59.82
2022-10-31T12:54:07.121Z,59.82
2022-10-31T12:55:07.152Z,59.82
2022-10-31T12:56:07.178Z,59.82